sensor_id;sensor_type;location;lat;lon;timestamp;P1;durP1;ratioP1;P2;durP2;ratioP2
55364;SDS011;41245;45.384;20.390;2024-02-15T00:01:09;94.03;;;40.33;;
55364;SDS011;41245;45.384;20.390;2024-02-15T00:03:35;97.97;;;41.05;;
55364;SDS011;41245;45.384;20.390;2024-02-15T00:06:01;95.13;;;39.17;;
55364;SDS011;41245;45.384;20.390;2024-02-15T00:08:28;84.78;;;39.08;;
55364;SDS011;41245;45.384;20.390;2024-02-15T00:10:54;103.88;;;40.55;;
55364;SDS011;41245;45.384;20.390;2024-02-15T00:13:20;93.53;;;41.00;;
55364;SDS011;41245;45.384;20.390;2024-02-15T00:15:47;82.55;;;36.83;;
55364;SDS011;41245;45.384;20.390;2024-02-15T00:18:14;109.22;;;41.20;;
55364;SDS011;41245;45.384;20.390;2024-02-15T00:20:40;103.38;;;39.65;;
55364;SDS011;41245;45.384;20.390;2024-02-15T00:23:05;90.97;;;41.88;;
55364;SDS011;41245;45.384;20.390;2024-02-15T00:25:32;84.72;;;36.45;;
55364;SDS011;41245;45.384;20.390;2024-02-15T00:27:58;99.20;;;38.58;;
55364;SDS011;41245;45.384;20.390;2024-02-15T00:30:27;92.57;;;38.97;;
55364;SDS011;41245;45.384;20.390;2024-02-15T00:32:53;88.00;;;36.33;;
55364;SDS011;41245;45.384;20.390;2024-02-15T00:35:19;90.55;;;38.35;;
55364;SDS011;41245;45.384;20.390;2024-02-15T00:37:45;83.68;;;36.60;;
55364;SDS011;41245;45.384;20.390;2024-02-15T00:40:12;88.72;;;36.22;;
55364;SDS011;41245;45.384;20.390;2024-02-15T00:42:38;88.35;;;37.80;;
55364;SDS011;41245;45.384;20.390;2024-02-15T00:45:04;90.90;;;38.95;;
55364;SDS011;41245;45.384;20.390;2024-02-15T00:47:30;100.70;;;36.45;;
55364;SDS011;41245;45.384;20.390;2024-02-15T00:49:57;86.95;;;36.88;;
55364;SDS011;41245;45.384;20.390;2024-02-15T00:52:23;84.93;;;36.40;;
55364;SDS011;41245;45.384;20.390;2024-02-15T00:54:50;98.93;;;37.67;;
55364;SDS011;41245;45.384;20.390;2024-02-15T00:57:16;75.07;;;33.28;;
55364;SDS011;41245;45.384;20.390;2024-02-15T00:59:42;81.60;;;36.55;;
55364;SDS011;41245;45.384;20.390;2024-02-15T01:02:08;97.70;;;37.17;;
55364;SDS011;41245;45.384;20.390;2024-02-15T01:04:34;87.20;;;36.75;;
55364;SDS011;41245;45.384;20.390;2024-02-15T01:07:01;79.30;;;37.28;;
55364;SDS011;41245;45.384;20.390;2024-02-15T01:09:27;85.10;;;38.78;;
55364;SDS011;41245;45.384;20.390;2024-02-15T01:11:53;82.03;;;34.72;;
55364;SDS011;41245;45.384;20.390;2024-02-15T01:14:19;91.75;;;39.42;;
55364;SDS011;41245;45.384;20.390;2024-02-15T01:16:45;99.55;;;38.13;;
55364;SDS011;41245;45.384;20.390;2024-02-15T01:19:11;89.35;;;37.55;;
55364;SDS011;41245;45.384;20.390;2024-02-15T01:21:37;85.97;;;36.63;;
55364;SDS011;41245;45.384;20.390;2024-02-15T01:24:03;97.90;;;38.17;;
55364;SDS011;41245;45.384;20.390;2024-02-15T01:26:31;91.28;;;37.08;;
55364;SDS011;41245;45.384;20.390;2024-02-15T01:28:57;90.43;;;38.70;;
55364;SDS011;41245;45.384;20.390;2024-02-15T01:31:23;93.50;;;40.53;;
55364;SDS011;41245;45.384;20.390;2024-02-15T01:33:49;95.03;;;39.70;;
55364;SDS011;41245;45.384;20.390;2024-02-15T01:36:15;95.85;;;36.90;;
55364;SDS011;41245;45.384;20.390;2024-02-15T01:38:42;84.88;;;38.78;;
55364;SDS011;41245;45.384;20.390;2024-02-15T01:41:09;84.38;;;36.35;;
55364;SDS011;41245;45.384;20.390;2024-02-15T01:43:36;97.22;;;36.80;;
55364;SDS011;41245;45.384;20.390;2024-02-15T01:46:02;90.07;;;38.08;;
55364;SDS011;41245;45.384;20.390;2024-02-15T01:48:34;78.93;;;35.55;;
55364;SDS011;41245;45.384;20.390;2024-02-15T01:51:01;81.65;;;35.60;;
55364;SDS011;41245;45.384;20.390;2024-02-15T01:53:28;92.03;;;36.92;;
55364;SDS011;41245;45.384;20.390;2024-02-15T01:55:55;84.85;;;36.47;;
55364;SDS011;41245;45.384;20.390;2024-02-15T01:58:22;89.97;;;36.75;;
55364;SDS011;41245;45.384;20.390;2024-02-15T02:00:49;91.13;;;38.38;;
55364;SDS011;41245;45.384;20.390;2024-02-15T02:03:15;82.28;;;36.47;;
55364;SDS011;41245;45.384;20.390;2024-02-15T02:05:42;84.78;;;36.88;;
55364;SDS011;41245;45.384;20.390;2024-02-15T02:08:07;97.90;;;40.83;;
55364;SDS011;41245;45.384;20.390;2024-02-15T02:10:37;91.20;;;39.33;;
55364;SDS011;41245;45.384;20.390;2024-02-15T02:13:03;88.38;;;36.67;;
55364;SDS011;41245;45.384;20.390;2024-02-15T02:15:33;827.33;;;262.17;;
55364;SDS011;41245;45.384;20.390;2024-02-15T02:18:03;112.93;;;53.05;;
55364;SDS011;41245;45.384;20.390;2024-02-15T02:20:33;105.78;;;46.78;;
55364;SDS011;41245;45.384;20.390;2024-02-15T02:23:03;107.93;;;46.00;;
55364;SDS011;41245;45.384;20.390;2024-02-15T02:25:32;115.60;;;47.90;;
55364;SDS011;41245;45.384;20.390;2024-02-15T02:27:59;115.00;;;48.80;;
55364;SDS011;41245;45.384;20.390;2024-02-15T02:30:26;95.72;;;43.67;;
55364;SDS011;41245;45.384;20.390;2024-02-15T02:32:55;100.50;;;42.97;;
55364;SDS011;41245;45.384;20.390;2024-02-15T02:35:22;94.90;;;41.92;;
55364;SDS011;41245;45.384;20.390;2024-02-15T02:37:48;120.45;;;51.80;;
55364;SDS011;41245;45.384;20.390;2024-02-15T02:40:14;118.20;;;47.53;;
55364;SDS011;41245;45.384;20.390;2024-02-15T02:42:50;99.18;;;43.35;;
55364;SDS011;41245;45.384;20.390;2024-02-15T02:45:17;100.43;;;41.05;;
55364;SDS011;41245;45.384;20.390;2024-02-15T02:47:47;92.65;;;39.58;;
55364;SDS011;41245;45.384;20.390;2024-02-15T02:50:22;103.55;;;42.30;;
55364;SDS011;41245;45.384;20.390;2024-02-15T02:52:48;93.25;;;40.33;;
55364;SDS011;41245;45.384;20.390;2024-02-15T02:55:15;105.13;;;43.60;;
55364;SDS011;41245;45.384;20.390;2024-02-15T02:57:41;116.50;;;45.05;;
55364;SDS011;41245;45.384;20.390;2024-02-15T03:00:10;110.93;;;43.88;;
55364;SDS011;41245;45.384;20.390;2024-02-15T03:02:38;141.05;;;57.05;;
55364;SDS011;41245;45.384;20.390;2024-02-15T03:05:04;111.45;;;45.53;;
55364;SDS011;41245;45.384;20.390;2024-02-15T03:07:34;116.88;;;45.03;;
55364;SDS011;41245;45.384;20.390;2024-02-15T03:10:02;97.05;;;42.78;;
55364;SDS011;41245;45.384;20.390;2024-02-15T03:12:33;106.88;;;41.05;;
55364;SDS011;41245;45.384;20.390;2024-02-15T03:15:01;118.70;;;44.05;;
55364;SDS011;41245;45.384;20.390;2024-02-15T03:17:27;106.85;;;44.03;;
55364;SDS011;41245;45.384;20.390;2024-02-15T03:19:53;109.68;;;41.92;;
55364;SDS011;41245;45.384;20.390;2024-02-15T03:22:18;111.20;;;43.28;;
55364;SDS011;41245;45.384;20.390;2024-02-15T03:24:44;100.90;;;42.47;;
55364;SDS011;41245;45.384;20.390;2024-02-15T03:27:10;93.22;;;40.75;;
55364;SDS011;41245;45.384;20.390;2024-02-15T03:29:36;103.15;;;42.25;;
55364;SDS011;41245;45.384;20.390;2024-02-15T03:32:02;101.50;;;41.67;;
55364;SDS011;41245;45.384;20.390;2024-02-15T03:34:29;93.68;;;41.67;;
55364;SDS011;41245;45.384;20.390;2024-02-15T03:36:56;122.70;;;46.58;;
55364;SDS011;41245;45.384;20.390;2024-02-15T03:39:22;100.47;;;44.85;;
55364;SDS011;41245;45.384;20.390;2024-02-15T03:41:49;97.57;;;44.42;;
55364;SDS011;41245;45.384;20.390;2024-02-15T03:44:15;96.00;;;41.92;;
55364;SDS011;41245;45.384;20.390;2024-02-15T03:46:43;97.65;;;43.28;;
55364;SDS011;41245;45.384;20.390;2024-02-15T03:49:16;93.38;;;40.47;;
55364;SDS011;41245;45.384;20.390;2024-02-15T03:51:43;86.97;;;41.10;;
55364;SDS011;41245;45.384;20.390;2024-02-15T03:54:10;99.95;;;40.28;;
55364;SDS011;41245;45.384;20.390;2024-02-15T03:56:36;94.38;;;38.95;;
55364;SDS011;41245;45.384;20.390;2024-02-15T03:59:11;77.93;;;36.03;;
55364;SDS011;41245;45.384;20.390;2024-02-15T04:01:38;99.00;;;39.38;;
55364;SDS011;41245;45.384;20.390;2024-02-15T04:04:04;92.13;;;39.45;;
55364;SDS011;41245;45.384;20.390;2024-02-15T04:06:30;93.40;;;39.72;;
55364;SDS011;41245;45.384;20.390;2024-02-15T04:08:58;104.30;;;43.63;;
55364;SDS011;41245;45.384;20.390;2024-02-15T04:11:24;97.72;;;39.63;;
55364;SDS011;41245;45.384;20.390;2024-02-15T04:13:50;88.78;;;36.85;;
55364;SDS011;41245;45.384;20.390;2024-02-15T04:16:16;84.65;;;37.72;;
55364;SDS011;41245;45.384;20.390;2024-02-15T04:18:43;95.90;;;37.45;;
55364;SDS011;41245;45.384;20.390;2024-02-15T04:21:10;83.45;;;35.58;;
55364;SDS011;41245;45.384;20.390;2024-02-15T04:23:36;93.68;;;36.28;;
55364;SDS011;41245;45.384;20.390;2024-02-15T04:26:02;86.07;;;34.83;;
55364;SDS011;41245;45.384;20.390;2024-02-15T04:28:28;75.45;;;34.35;;
55364;SDS011;41245;45.384;20.390;2024-02-15T04:30:54;83.60;;;34.97;;
55364;SDS011;41245;45.384;20.390;2024-02-15T04:33:20;73.93;;;32.00;;
55364;SDS011;41245;45.384;20.390;2024-02-15T04:35:46;65.70;;;30.63;;
55364;SDS011;41245;45.384;20.390;2024-02-15T04:38:13;65.72;;;30.52;;
55364;SDS011;41245;45.384;20.390;2024-02-15T04:40:39;77.13;;;32.95;;
55364;SDS011;41245;45.384;20.390;2024-02-15T04:43:05;81.93;;;33.90;;
55364;SDS011;41245;45.384;20.390;2024-02-15T04:45:33;85.03;;;34.92;;
55364;SDS011;41245;45.384;20.390;2024-02-15T04:48:00;78.80;;;33.95;;
55364;SDS011;41245;45.384;20.390;2024-02-15T04:50:27;78.88;;;34.45;;
55364;SDS011;41245;45.384;20.390;2024-02-15T04:52:54;81.22;;;34.17;;
55364;SDS011;41245;45.384;20.390;2024-02-15T04:55:20;79.72;;;32.40;;
55364;SDS011;41245;45.384;20.390;2024-02-15T04:57:47;81.28;;;33.38;;
55364;SDS011;41245;45.384;20.390;2024-02-15T05:00:14;70.82;;;32.30;;
55364;SDS011;41245;45.384;20.390;2024-02-15T05:02:41;75.07;;;33.45;;
55364;SDS011;41245;45.384;20.390;2024-02-15T05:05:09;77.03;;;31.20;;
55364;SDS011;41245;45.384;20.390;2024-02-15T05:07:37;78.63;;;30.88;;
55364;SDS011;41245;45.384;20.390;2024-02-15T05:10:05;77.50;;;32.80;;
55364;SDS011;41245;45.384;20.390;2024-02-15T05:12:32;73.22;;;30.80;;
55364;SDS011;41245;45.384;20.390;2024-02-15T05:15:00;79.63;;;32.50;;
55364;SDS011;41245;45.384;20.390;2024-02-15T05:17:27;78.10;;;30.50;;
55364;SDS011;41245;45.384;20.390;2024-02-15T05:19:54;62.55;;;28.42;;
55364;SDS011;41245;45.384;20.390;2024-02-15T05:22:24;67.97;;;28.33;;
55364;SDS011;41245;45.384;20.390;2024-02-15T05:24:54;62.38;;;27.73;;
55364;SDS011;41245;45.384;20.390;2024-02-15T05:27:22;61.97;;;27.45;;
55364;SDS011;41245;45.384;20.390;2024-02-15T05:29:48;76.38;;;27.88;;
55364;SDS011;41245;45.384;20.390;2024-02-15T05:32:14;62.55;;;29.77;;
55364;SDS011;41245;45.384;20.390;2024-02-15T05:34:42;67.20;;;30.27;;
55364;SDS011;41245;45.384;20.390;2024-02-15T05:37:08;66.25;;;31.20;;
55364;SDS011;41245;45.384;20.390;2024-02-15T05:39:35;78.28;;;32.45;;
55364;SDS011;41245;45.384;20.390;2024-02-15T05:42:01;77.80;;;34.33;;
55364;SDS011;41245;45.384;20.390;2024-02-15T05:44:27;64.20;;;29.75;;
55364;SDS011;41245;45.384;20.390;2024-02-15T05:46:53;78.20;;;32.83;;
55364;SDS011;41245;45.384;20.390;2024-02-15T05:49:18;66.35;;;32.47;;
55364;SDS011;41245;45.384;20.390;2024-02-15T05:51:44;71.45;;;32.45;;
55364;SDS011;41245;45.384;20.390;2024-02-15T05:54:12;72.90;;;33.20;;
55364;SDS011;41245;45.384;20.390;2024-02-15T05:56:38;85.57;;;35.03;;
55364;SDS011;41245;45.384;20.390;2024-02-15T05:59:04;94.18;;;35.03;;
55364;SDS011;41245;45.384;20.390;2024-02-15T06:01:35;86.80;;;37.58;;
55364;SDS011;41245;45.384;20.390;2024-02-15T06:04:06;89.55;;;38.60;;
55364;SDS011;41245;45.384;20.390;2024-02-15T06:06:36;93.57;;;41.60;;
55364;SDS011;41245;45.384;20.390;2024-02-15T06:09:03;97.55;;;45.42;;
55364;SDS011;41245;45.384;20.390;2024-02-15T06:11:29;106.47;;;47.83;;
55364;SDS011;41245;45.384;20.390;2024-02-15T06:13:55;112.53;;;47.03;;
55364;SDS011;41245;45.384;20.390;2024-02-15T06:16:21;109.95;;;45.90;;
55364;SDS011;41245;45.384;20.390;2024-02-15T06:18:47;101.65;;;46.45;;
55364;SDS011;41245;45.384;20.390;2024-02-15T06:21:13;112.80;;;51.17;;
55364;SDS011;41245;45.384;20.390;2024-02-15T06:23:39;132.88;;;56.53;;
55364;SDS011;41245;45.384;20.390;2024-02-15T06:26:05;120.20;;;56.67;;
55364;SDS011;41245;45.384;20.390;2024-02-15T06:28:31;119.03;;;56.70;;
55364;SDS011;41245;45.384;20.390;2024-02-15T06:31:16;126.68;;;57.65;;
55364;SDS011;41245;45.384;20.390;2024-02-15T06:34:00;130.77;;;54.13;;
55364;SDS011;41245;45.384;20.390;2024-02-15T06:39:32;103.53;;;47.65;;
55364;SDS011;41245;45.384;20.390;2024-02-15T06:42:11;95.35;;;42.17;;
55364;SDS011;41245;45.384;20.390;2024-02-15T06:44:40;80.65;;;35.30;;
55364;SDS011;41245;45.384;20.390;2024-02-15T06:47:07;68.45;;;35.13;;
55364;SDS011;41245;45.384;20.390;2024-02-15T06:49:36;73.00;;;33.45;;
55364;SDS011;41245;45.384;20.390;2024-02-15T06:52:04;65.67;;;31.20;;
55364;SDS011;41245;45.384;20.390;2024-02-15T06:54:32;66.57;;;30.70;;
55364;SDS011;41245;45.384;20.390;2024-02-15T06:56:58;65.07;;;29.10;;
55364;SDS011;41245;45.384;20.390;2024-02-15T06:59:24;77.60;;;31.67;;
55364;SDS011;41245;45.384;20.390;2024-02-15T07:01:50;72.32;;;29.63;;
55364;SDS011;41245;45.384;20.390;2024-02-15T07:04:20;62.40;;;30.05;;
55364;SDS011;41245;45.384;20.390;2024-02-15T07:06:46;66.88;;;29.85;;
55364;SDS011;41245;45.384;20.390;2024-02-15T07:09:14;72.30;;;31.83;;
55364;SDS011;41245;45.384;20.390;2024-02-15T07:11:40;68.38;;;32.72;;
55364;SDS011;41245;45.384;20.390;2024-02-15T07:14:07;66.57;;;31.02;;
55364;SDS011;41245;45.384;20.390;2024-02-15T07:16:34;70.57;;;32.22;;
55364;SDS011;41245;45.384;20.390;2024-02-15T07:19:00;70.30;;;32.25;;
55364;SDS011;41245;45.384;20.390;2024-02-15T07:21:26;68.30;;;30.75;;
55364;SDS011;41245;45.384;20.390;2024-02-15T07:23:55;57.40;;;28.73;;
55364;SDS011;41245;45.384;20.390;2024-02-15T07:26:21;62.55;;;29.48;;
55364;SDS011;41245;45.384;20.390;2024-02-15T07:28:58;57.67;;;25.38;;
55364;SDS011;41245;45.384;20.390;2024-02-15T07:31:28;66.25;;;26.90;;
55364;SDS011;41245;45.384;20.390;2024-02-15T07:33:54;55.77;;;25.30;;
55364;SDS011;41245;45.384;20.390;2024-02-15T07:36:20;49.78;;;25.17;;
55364;SDS011;41245;45.384;20.390;2024-02-15T07:38:47;51.60;;;23.77;;
55364;SDS011;41245;45.384;20.390;2024-02-15T07:41:14;62.03;;;29.13;;
55364;SDS011;41245;45.384;20.390;2024-02-15T07:43:40;56.83;;;25.35;;
55364;SDS011;41245;45.384;20.390;2024-02-15T07:46:06;60.10;;;27.85;;
55364;SDS011;41245;45.384;20.390;2024-02-15T07:48:32;61.83;;;25.98;;
55364;SDS011;41245;45.384;20.390;2024-02-15T07:50:58;52.42;;;25.02;;
55364;SDS011;41245;45.384;20.390;2024-02-15T07:53:24;52.13;;;23.55;;
55364;SDS011;41245;45.384;20.390;2024-02-15T07:55:50;52.00;;;23.33;;
55364;SDS011;41245;45.384;20.390;2024-02-15T07:58:16;46.65;;;22.75;;
55364;SDS011;41245;45.384;20.390;2024-02-15T08:00:44;47.03;;;23.48;;
55364;SDS011;41245;45.384;20.390;2024-02-15T08:03:10;52.47;;;26.33;;
55364;SDS011;41245;45.384;20.390;2024-02-15T08:05:36;48.22;;;24.00;;
55364;SDS011;41245;45.384;20.390;2024-02-15T08:08:03;54.10;;;24.98;;
55364;SDS011;41245;45.384;20.390;2024-02-15T08:10:29;48.83;;;24.20;;
55364;SDS011;41245;45.384;20.390;2024-02-15T08:12:55;46.38;;;22.35;;
55364;SDS011;41245;45.384;20.390;2024-02-15T08:15:23;45.47;;;22.05;;
55364;SDS011;41245;45.384;20.390;2024-02-15T08:17:49;44.60;;;23.40;;
55364;SDS011;41245;45.384;20.390;2024-02-15T08:20:15;35.97;;;20.08;;
55364;SDS011;41245;45.384;20.390;2024-02-15T08:22:46;37.35;;;20.15;;
55364;SDS011;41245;45.384;20.390;2024-02-15T08:25:13;44.28;;;20.35;;
55364;SDS011;41245;45.384;20.390;2024-02-15T08:27:43;40.40;;;21.70;;
55364;SDS011;41245;45.384;20.390;2024-02-15T08:30:10;38.83;;;18.67;;
55364;SDS011;41245;45.384;20.390;2024-02-15T08:32:38;39.13;;;18.23;;
55364;SDS011;41245;45.384;20.390;2024-02-15T08:35:05;35.80;;;18.90;;
55364;SDS011;41245;45.384;20.390;2024-02-15T08:37:32;37.95;;;20.63;;
55364;SDS011;41245;45.384;20.390;2024-02-15T08:40:03;41.72;;;21.10;;
55364;SDS011;41245;45.384;20.390;2024-02-15T08:42:39;38.85;;;18.33;;
55364;SDS011;41245;45.384;20.390;2024-02-15T08:45:07;41.20;;;17.73;;
55364;SDS011;41245;45.384;20.390;2024-02-15T08:47:37;39.47;;;19.50;;
55364;SDS011;41245;45.384;20.390;2024-02-15T08:52:30;49.15;;;19.95;;
55364;SDS011;41245;45.384;20.390;2024-02-15T08:54:56;39.00;;;18.65;;
55364;SDS011;41245;45.384;20.390;2024-02-15T08:57:24;38.28;;;18.90;;
55364;SDS011;41245;45.384;20.390;2024-02-15T08:59:50;35.85;;;18.38;;
55364;SDS011;41245;45.384;20.390;2024-02-15T09:02:17;37.80;;;17.42;;
55364;SDS011;41245;45.384;20.390;2024-02-15T09:04:43;36.28;;;17.05;;
55364;SDS011;41245;45.384;20.390;2024-02-15T09:07:09;31.20;;;16.65;;
55364;SDS011;41245;45.384;20.390;2024-02-15T09:09:35;34.63;;;17.30;;
55364;SDS011;41245;45.384;20.390;2024-02-15T09:12:02;39.03;;;18.85;;
55364;SDS011;41245;45.384;20.390;2024-02-15T09:14:32;35.20;;;19.75;;
55364;SDS011;41245;45.384;20.390;2024-02-15T09:16:59;35.50;;;19.23;;
55364;SDS011;41245;45.384;20.390;2024-02-15T09:19:25;45.67;;;20.63;;
55364;SDS011;41245;45.384;20.390;2024-02-15T09:21:51;39.30;;;18.40;;
55364;SDS011;41245;45.384;20.390;2024-02-15T09:24:18;33.03;;;17.48;;
55364;SDS011;41245;45.384;20.390;2024-02-15T09:26:44;37.45;;;18.92;;
55364;SDS011;41245;45.384;20.390;2024-02-15T09:29:11;36.75;;;18.33;;
55364;SDS011;41245;45.384;20.390;2024-02-15T09:31:37;39.33;;;19.55;;
55364;SDS011;41245;45.384;20.390;2024-02-15T09:34:05;38.08;;;20.58;;
55364;SDS011;41245;45.384;20.390;2024-02-15T09:36:34;23.58;;;11.55;;
55364;SDS011;41245;45.384;20.390;2024-02-15T09:39:04;26.90;;;13.45;;
55364;SDS011;41245;45.384;20.390;2024-02-15T09:41:31;30.25;;;15.48;;
55364;SDS011;41245;45.384;20.390;2024-02-15T09:43:57;29.38;;;14.65;;
55364;SDS011;41245;45.384;20.390;2024-02-15T09:46:23;29.77;;;14.95;;
55364;SDS011;41245;45.384;20.390;2024-02-15T09:48:51;30.80;;;14.43;;
55364;SDS011;41245;45.384;20.390;2024-02-15T09:51:23;27.55;;;13.35;;
55364;SDS011;41245;45.384;20.390;2024-02-15T09:53:52;24.57;;;12.93;;
55364;SDS011;41245;45.384;20.390;2024-02-15T09:56:19;24.60;;;13.48;;
55364;SDS011;41245;45.384;20.390;2024-02-15T09:58:49;24.58;;;13.25;;
55364;SDS011;41245;45.384;20.390;2024-02-15T10:01:15;21.33;;;10.70;;
55364;SDS011;41245;45.384;20.390;2024-02-15T10:03:43;20.23;;;9.65;;
55364;SDS011;41245;45.384;20.390;2024-02-15T10:06:09;18.42;;;9.63;;
55364;SDS011;41245;45.384;20.390;2024-02-15T10:08:36;22.90;;;11.60;;
55364;SDS011;41245;45.384;20.390;2024-02-15T10:11:10;22.55;;;11.45;;
55364;SDS011;41245;45.384;20.390;2024-02-15T10:13:36;20.25;;;11.48;;
55364;SDS011;41245;45.384;20.390;2024-02-15T10:16:15;21.15;;;11.48;;
55364;SDS011;41245;45.384;20.390;2024-02-15T10:18:41;22.35;;;10.95;;
55364;SDS011;41245;45.384;20.390;2024-02-15T10:21:07;20.92;;;11.32;;
55364;SDS011;41245;45.384;20.390;2024-02-15T10:23:34;18.70;;;10.82;;
55364;SDS011;41245;45.384;20.390;2024-02-15T10:26:00;22.60;;;10.63;;
55364;SDS011;41245;45.384;20.390;2024-02-15T10:28:44;20.75;;;11.52;;
55364;SDS011;41245;45.384;20.390;2024-02-15T10:31:10;24.27;;;10.27;;
55364;SDS011;41245;45.384;20.390;2024-02-15T10:33:38;20.15;;;9.57;;
55364;SDS011;41245;45.384;20.390;2024-02-15T10:36:05;16.45;;;8.95;;
55364;SDS011;41245;45.384;20.390;2024-02-15T10:38:34;21.48;;;8.90;;
55364;SDS011;41245;45.384;20.390;2024-02-15T10:41:04;15.55;;;8.65;;
55364;SDS011;41245;45.384;20.390;2024-02-15T10:43:35;19.20;;;9.75;;
55364;SDS011;41245;45.384;20.390;2024-02-15T10:46:03;18.52;;;8.88;;
55364;SDS011;41245;45.384;20.390;2024-02-15T10:48:29;15.77;;;8.20;;
55364;SDS011;41245;45.384;20.390;2024-02-15T10:51:03;22.17;;;8.73;;
55364;SDS011;41245;45.384;20.390;2024-02-15T10:53:30;13.45;;;7.97;;
55364;SDS011;41245;45.384;20.390;2024-02-15T10:56:18;13.73;;;7.35;;
55364;SDS011;41245;45.384;20.390;2024-02-15T10:58:51;19.48;;;8.95;;
55364;SDS011;41245;45.384;20.390;2024-02-15T11:01:21;14.20;;;7.63;;
55364;SDS011;41245;45.384;20.390;2024-02-15T11:03:50;14.77;;;8.45;;
55364;SDS011;41245;45.384;20.390;2024-02-15T11:06:21;15.30;;;8.30;;
55364;SDS011;41245;45.384;20.390;2024-02-15T11:08:51;18.27;;;8.50;;
55364;SDS011;41245;45.384;20.390;2024-02-15T11:11:18;17.10;;;8.18;;
55364;SDS011;41245;45.384;20.390;2024-02-15T11:13:45;16.65;;;8.52;;
55364;SDS011;41245;45.384;20.390;2024-02-15T11:18:59;15.95;;;8.32;;
55364;SDS011;41245;45.384;20.390;2024-02-15T11:21:52;14.02;;;7.70;;
55364;SDS011;41245;45.384;20.390;2024-02-15T11:24:25;16.13;;;7.22;;
55364;SDS011;41245;45.384;20.390;2024-02-15T11:26:52;18.55;;;7.25;;
55364;SDS011;41245;45.384;20.390;2024-02-15T11:32:08;10.25;;;6.20;;
55364;SDS011;41245;45.384;20.390;2024-02-15T11:34:43;12.38;;;7.03;;
55364;SDS011;41245;45.384;20.390;2024-02-15T11:37:56;11.57;;;6.38;;
55364;SDS011;41245;45.384;20.390;2024-02-15T11:40:02;9.23;;;6.45;;
55364;SDS011;41245;45.384;20.390;2024-02-15T11:42:28;10.93;;;6.00;;
55364;SDS011;41245;45.384;20.390;2024-02-15T11:45:05;11.73;;;5.82;;
55364;SDS011;41245;45.384;20.390;2024-02-15T11:47:33;11.32;;;6.47;;
55364;SDS011;41245;45.384;20.390;2024-02-15T11:50:01;15.02;;;6.65;;
55364;SDS011;41245;45.384;20.390;2024-02-15T11:52:30;12.30;;;7.30;;
55364;SDS011;41245;45.384;20.390;2024-02-15T11:55:06;12.65;;;6.22;;
55364;SDS011;41245;45.384;20.390;2024-02-15T11:57:41;17.23;;;7.78;;
55364;SDS011;41245;45.384;20.390;2024-02-15T12:00:19;13.95;;;8.27;;
55364;SDS011;41245;45.384;20.390;2024-02-15T12:03:04;17.63;;;7.93;;
55364;SDS011;41245;45.384;20.390;2024-02-15T12:05:49;11.60;;;7.35;;
55364;SDS011;41245;45.384;20.390;2024-02-15T12:08:34;13.43;;;6.20;;
55364;SDS011;41245;45.384;20.390;2024-02-15T12:11:19;9.80;;;6.13;;
55364;SDS011;41245;45.384;20.390;2024-02-15T12:14:04;8.35;;;4.88;;
55364;SDS011;41245;45.384;20.390;2024-02-15T12:16:58;10.88;;;5.85;;
55364;SDS011;41245;45.384;20.390;2024-02-15T12:19:43;16.73;;;7.18;;
55364;SDS011;41245;45.384;20.390;2024-02-15T12:22:09;14.25;;;7.95;;
55364;SDS011;41245;45.384;20.390;2024-02-15T12:24:35;11.23;;;6.85;;
55364;SDS011;41245;45.384;20.390;2024-02-15T12:27:01;14.27;;;7.50;;
55364;SDS011;41245;45.384;20.390;2024-02-15T12:29:31;16.73;;;7.07;;
55364;SDS011;41245;45.384;20.390;2024-02-15T12:31:58;11.18;;;5.85;;
55364;SDS011;41245;45.384;20.390;2024-02-15T12:34:24;10.10;;;5.75;;
55364;SDS011;41245;45.384;20.390;2024-02-15T12:36:50;11.30;;;5.78;;
55364;SDS011;41245;45.384;20.390;2024-02-15T12:39:24;10.27;;;6.57;;
55364;SDS011;41245;45.384;20.390;2024-02-15T12:41:50;12.40;;;6.75;;
55364;SDS011;41245;45.384;20.390;2024-02-15T12:44:16;15.90;;;7.00;;
55364;SDS011;41245;45.384;20.390;2024-02-15T12:46:45;15.60;;;6.57;;
55364;SDS011;41245;45.384;20.390;2024-02-15T12:51:41;11.95;;;6.88;;
55364;SDS011;41245;45.384;20.390;2024-02-15T12:54:19;15.20;;;7.85;;
55364;SDS011;41245;45.384;20.390;2024-02-15T12:56:46;12.43;;;6.68;;
55364;SDS011;41245;45.384;20.390;2024-02-15T12:59:17;22.55;;;10.32;;
55364;SDS011;41245;45.384;20.390;2024-02-15T13:01:48;10.68;;;6.45;;
55364;SDS011;41245;45.384;20.390;2024-02-15T13:04:24;17.13;;;6.78;;
55364;SDS011;41245;45.384;20.390;2024-02-15T13:06:51;17.15;;;5.93;;
55364;SDS011;41245;45.384;20.390;2024-02-15T13:09:17;15.82;;;8.15;;
55364;SDS011;41245;45.384;20.390;2024-02-15T13:11:44;10.82;;;5.55;;
55364;SDS011;41245;45.384;20.390;2024-02-15T13:14:12;10.10;;;6.45;;
55364;SDS011;41245;45.384;20.390;2024-02-15T13:16:38;69.32;;;29.90;;
55364;SDS011;41245;45.384;20.390;2024-02-15T13:19:04;19.08;;;8.57;;
55364;SDS011;41245;45.384;20.390;2024-02-15T13:21:32;18.95;;;7.88;;
55364;SDS011;41245;45.384;20.390;2024-02-15T13:23:59;13.93;;;6.50;;
55364;SDS011;41245;45.384;20.390;2024-02-15T13:26:30;10.88;;;6.25;;
55364;SDS011;41245;45.384;20.390;2024-02-15T13:28:57;17.08;;;6.95;;
55364;SDS011;41245;45.384;20.390;2024-02-15T13:31:23;12.30;;;6.47;;
55364;SDS011;41245;45.384;20.390;2024-02-15T13:33:49;16.23;;;6.20;;
55364;SDS011;41245;45.384;20.390;2024-02-15T13:36:16;10.85;;;6.80;;
55364;SDS011;41245;45.384;20.390;2024-02-15T13:38:42;11.27;;;5.90;;
55364;SDS011;41245;45.384;20.390;2024-02-15T13:41:08;9.57;;;6.47;;
55364;SDS011;41245;45.384;20.390;2024-02-15T13:43:34;12.68;;;5.93;;
55364;SDS011;41245;45.384;20.390;2024-02-15T13:46:00;10.18;;;6.22;;
55364;SDS011;41245;45.384;20.390;2024-02-15T13:48:29;15.75;;;6.70;;
55364;SDS011;41245;45.384;20.390;2024-02-15T13:50:56;14.13;;;5.68;;
55364;SDS011;41245;45.384;20.390;2024-02-15T13:53:23;11.57;;;5.65;;
55364;SDS011;41245;45.384;20.390;2024-02-15T13:55:50;14.48;;;7.18;;
55364;SDS011;41245;45.384;20.390;2024-02-15T13:58:17;9.57;;;5.20;;
55364;SDS011;41245;45.384;20.390;2024-02-15T14:00:43;8.30;;;5.15;;
55364;SDS011;41245;45.384;20.390;2024-02-15T14:03:10;11.18;;;6.40;;
55364;SDS011;41245;45.384;20.390;2024-02-15T14:05:37;13.07;;;5.57;;
55364;SDS011;41245;45.384;20.390;2024-02-15T14:08:05;11.23;;;5.30;;
55364;SDS011;41245;45.384;20.390;2024-02-15T14:10:33;7.20;;;4.70;;
55364;SDS011;41245;45.384;20.390;2024-02-15T14:13:04;7.05;;;4.53;;
55364;SDS011;41245;45.384;20.390;2024-02-15T14:18:08;11.75;;;6.15;;
55364;SDS011;41245;45.384;20.390;2024-02-15T14:20:46;12.57;;;6.22;;
55364;SDS011;41245;45.384;20.390;2024-02-15T14:23:13;9.40;;;5.65;;
55364;SDS011;41245;45.384;20.390;2024-02-15T14:25:40;13.65;;;5.50;;
55364;SDS011;41245;45.384;20.390;2024-02-15T14:28:06;11.73;;;6.18;;
55364;SDS011;41245;45.384;20.390;2024-02-15T14:30:35;16.87;;;6.43;;
55364;SDS011;41245;45.384;20.390;2024-02-15T14:33:20;13.15;;;6.90;;